sensor_id;sensor_type;location;lat;lon;timestamp;P1;durP1;ratioP1;P2;durP2;ratioP2
36593;SDS011;22603;47.900;8.146;2023-09-12T00:01:32;13.17;;;4.97;;
36593;SDS011;22603;47.900;8.146;2023-09-12T00:04:19;10.93;;;4.93;;
36593;SDS011;22603;47.900;8.146;2023-09-12T00:07:06;11.50;;;5.47;;
36593;SDS011;22603;47.900;8.146;2023-09-12T00:09:54;11.07;;;5.60;;
36593;SDS011;22603;47.900;8.146;2023-09-12T00:12:41;11.10;;;5.60;;
36593;SDS011;22603;47.900;8.146;2023-09-12T00:15:27;12.27;;;5.23;;
36593;SDS011;22603;47.900;8.146;2023-09-12T00:18:15;11.23;;;5.50;;
36593;SDS011;22603;47.900;8.146;2023-09-12T00:21:02;12.23;;;5.10;;
36593;SDS011;22603;47.900;8.146;2023-09-12T00:23:49;11.73;;;5.13;;
36593;SDS011;22603;47.900;8.146;2023-09-12T00:26:37;15.67;;;6.23;;
36593;SDS011;22603;47.900;8.146;2023-09-12T00:29:24;12.13;;;5.03;;
36593;SDS011;22603;47.900;8.146;2023-09-12T00:32:10;12.23;;;5.13;;
36593;SDS011;22603;47.900;8.146;2023-09-12T00:34:57;14.37;;;5.80;;
36593;SDS011;22603;47.900;8.146;2023-09-12T00:37:44;11.77;;;5.20;;
36593;SDS011;22603;47.900;8.146;2023-09-12T00:40:30;12.70;;;5.20;;
36593;SDS011;22603;47.900;8.146;2023-09-12T00:43:19;10.53;;;5.27;;
36593;SDS011;22603;47.900;8.146;2023-09-12T00:46:06;11.63;;;5.07;;
36593;SDS011;22603;47.900;8.146;2023-09-12T00:48:52;10.10;;;5.07;;
36593;SDS011;22603;47.900;8.146;2023-09-12T00:51:41;11.47;;;4.90;;
36593;SDS011;22603;47.900;8.146;2023-09-12T00:54:30;14.27;;;5.40;;
36593;SDS011;22603;47.900;8.146;2023-09-12T00:57:17;10.77;;;5.30;;
36593;SDS011;22603;47.900;8.146;2023-09-12T01:00:07;13.10;;;5.70;;
36593;SDS011;22603;47.900;8.146;2023-09-12T01:02:59;13.80;;;5.00;;
36593;SDS011;22603;47.900;8.146;2023-09-12T01:05:46;13.00;;;5.17;;
36593;SDS011;22603;47.900;8.146;2023-09-12T01:08:34;12.10;;;5.17;;
36593;SDS011;22603;47.900;8.146;2023-09-12T01:11:22;12.87;;;5.27;;
36593;SDS011;22603;47.900;8.146;2023-09-12T01:14:10;15.47;;;6.00;;
36593;SDS011;22603;47.900;8.146;2023-09-12T01:16:58;11.50;;;4.90;;
36593;SDS011;22603;47.900;8.146;2023-09-12T01:19:46;10.70;;;5.27;;
36593;SDS011;22603;47.900;8.146;2023-09-12T01:22:40;12.67;;;4.93;;
36593;SDS011;22603;47.900;8.146;2023-09-12T01:29:04;11.77;;;5.60;;
36593;SDS011;22603;47.900;8.146;2023-09-12T01:31:54;15.13;;;5.73;;
36593;SDS011;22603;47.900;8.146;2023-09-12T01:34:41;13.37;;;5.70;;
36593;SDS011;22603;47.900;8.146;2023-09-12T01:37:28;11.07;;;5.57;;
36593;SDS011;22603;47.900;8.146;2023-09-12T01:40:17;12.90;;;5.23;;
36593;SDS011;22603;47.900;8.146;2023-09-12T01:43:06;12.73;;;5.43;;
36593;SDS011;22603;47.900;8.146;2023-09-12T01:45:55;12.53;;;5.27;;
36593;SDS011;22603;47.900;8.146;2023-09-12T01:48:44;11.10;;;5.27;;
36593;SDS011;22603;47.900;8.146;2023-09-12T01:51:36;13.73;;;5.53;;
36593;SDS011;22603;47.900;8.146;2023-09-12T01:54:23;12.20;;;5.40;;
36593;SDS011;22603;47.900;8.146;2023-09-12T01:57:10;11.93;;;5.47;;
36593;SDS011;22603;47.900;8.146;2023-09-12T01:59:58;12.80;;;5.37;;
36593;SDS011;22603;47.900;8.146;2023-09-12T02:02:46;11.77;;;6.00;;
36593;SDS011;22603;47.900;8.146;2023-09-12T02:05:33;11.57;;;5.40;;
36593;SDS011;22603;47.900;8.146;2023-09-12T02:08:20;13.20;;;5.77;;
36593;SDS011;22603;47.900;8.146;2023-09-12T02:11:07;16.07;;;6.10;;
36593;SDS011;22603;47.900;8.146;2023-09-12T02:13:54;14.93;;;5.93;;
36593;SDS011;22603;47.900;8.146;2023-09-12T02:16:40;11.83;;;5.77;;
36593;SDS011;22603;47.900;8.146;2023-09-12T02:19:30;12.80;;;5.53;;
36593;SDS011;22603;47.900;8.146;2023-09-12T02:22:17;12.53;;;5.37;;
36593;SDS011;22603;47.900;8.146;2023-09-12T02:25:05;10.73;;;5.13;;
36593;SDS011;22603;47.900;8.146;2023-09-12T02:27:52;11.37;;;5.30;;
36593;SDS011;22603;47.900;8.146;2023-09-12T02:30:39;11.30;;;5.20;;
36593;SDS011;22603;47.900;8.146;2023-09-12T02:33:26;11.20;;;5.60;;
36593;SDS011;22603;47.900;8.146;2023-09-12T02:36:14;13.80;;;5.50;;
36593;SDS011;22603;47.900;8.146;2023-09-12T02:39:01;13.80;;;5.30;;
36593;SDS011;22603;47.900;8.146;2023-09-12T02:41:49;15.37;;;5.90;;
36593;SDS011;22603;47.900;8.146;2023-09-12T02:44:36;13.43;;;5.80;;
36593;SDS011;22603;47.900;8.146;2023-09-12T02:47:22;12.03;;;5.67;;
36593;SDS011;22603;47.900;8.146;2023-09-12T02:50:09;14.33;;;5.47;;
36593;SDS011;22603;47.900;8.146;2023-09-12T02:52:57;11.87;;;5.33;;
36593;SDS011;22603;47.900;8.146;2023-09-12T02:55:44;12.27;;;5.47;;
36593;SDS011;22603;47.900;8.146;2023-09-12T02:58:31;11.80;;;5.60;;
36593;SDS011;22603;47.900;8.146;2023-09-12T03:01:18;11.27;;;5.27;;
36593;SDS011;22603;47.900;8.146;2023-09-12T03:04:06;14.20;;;6.27;;
36593;SDS011;22603;47.900;8.146;2023-09-12T03:06:53;13.73;;;5.67;;
36593;SDS011;22603;47.900;8.146;2023-09-12T03:09:41;13.20;;;5.00;;
36593;SDS011;22603;47.900;8.146;2023-09-12T03:12:27;12.07;;;5.57;;
36593;SDS011;22603;47.900;8.146;2023-09-12T03:15:14;13.20;;;5.43;;
36593;SDS011;22603;47.900;8.146;2023-09-12T03:18:01;12.13;;;5.57;;
36593;SDS011;22603;47.900;8.146;2023-09-12T03:20:48;11.47;;;5.83;;
36593;SDS011;22603;47.900;8.146;2023-09-12T03:23:35;15.23;;;5.93;;
36593;SDS011;22603;47.900;8.146;2023-09-12T03:26:23;13.83;;;5.90;;
36593;SDS011;22603;47.900;8.146;2023-09-12T03:29:10;13.73;;;5.63;;
36593;SDS011;22603;47.900;8.146;2023-09-12T03:31:57;11.63;;;5.73;;
36593;SDS011;22603;47.900;8.146;2023-09-12T03:34:43;15.90;;;6.57;;
36593;SDS011;22603;47.900;8.146;2023-09-12T03:37:30;14.70;;;5.73;;
36593;SDS011;22603;47.900;8.146;2023-09-12T03:40:16;12.03;;;5.47;;
36593;SDS011;22603;47.900;8.146;2023-09-12T03:43:04;13.67;;;5.53;;
36593;SDS011;22603;47.900;8.146;2023-09-12T03:45:51;17.10;;;5.73;;
36593;SDS011;22603;47.900;8.146;2023-09-12T03:48:39;13.93;;;5.57;;
36593;SDS011;22603;47.900;8.146;2023-09-12T03:51:26;11.57;;;5.50;;
36593;SDS011;22603;47.900;8.146;2023-09-12T03:54:14;13.53;;;5.60;;
36593;SDS011;22603;47.900;8.146;2023-09-12T03:57:01;12.20;;;5.50;;
36593;SDS011;22603;47.900;8.146;2023-09-12T03:59:49;14.43;;;6.33;;
36593;SDS011;22603;47.900;8.146;2023-09-12T04:02:37;12.50;;;5.50;;
36593;SDS011;22603;47.900;8.146;2023-09-12T04:05:24;12.80;;;5.73;;
36593;SDS011;22603;47.900;8.146;2023-09-12T04:08:11;12.67;;;4.90;;
36593;SDS011;22603;47.900;8.146;2023-09-12T04:10:58;12.77;;;5.43;;
36593;SDS011;22603;47.900;8.146;2023-09-12T04:13:45;17.73;;;6.00;;
36593;SDS011;22603;47.900;8.146;2023-09-12T04:16:33;12.03;;;5.73;;
36593;SDS011;22603;47.900;8.146;2023-09-12T04:19:20;11.53;;;5.50;;
36593;SDS011;22603;47.900;8.146;2023-09-12T04:22:06;13.07;;;5.33;;
36593;SDS011;22603;47.900;8.146;2023-09-12T04:24:53;12.50;;;5.63;;
36593;SDS011;22603;47.900;8.146;2023-09-12T04:27:40;12.00;;;5.40;;
36593;SDS011;22603;47.900;8.146;2023-09-12T04:30:28;14.13;;;5.90;;
36593;SDS011;22603;47.900;8.146;2023-09-12T04:33:16;13.03;;;6.17;;
36593;SDS011;22603;47.900;8.146;2023-09-12T04:36:02;12.47;;;5.33;;
36593;SDS011;22603;47.900;8.146;2023-09-12T04:38:49;11.00;;;4.90;;
36593;SDS011;22603;47.900;8.146;2023-09-12T04:41:36;12.53;;;5.87;;
36593;SDS011;22603;47.900;8.146;2023-09-12T04:44:23;13.47;;;5.87;;
36593;SDS011;22603;47.900;8.146;2023-09-12T04:47:10;13.27;;;5.67;;
36593;SDS011;22603;47.900;8.146;2023-09-12T04:49:58;14.97;;;6.23;;
36593;SDS011;22603;47.900;8.146;2023-09-12T04:52:46;16.90;;;5.53;;
36593;SDS011;22603;47.900;8.146;2023-09-12T04:55:34;13.03;;;5.83;;
36593;SDS011;22603;47.900;8.146;2023-09-12T04:58:21;16.23;;;6.23;;
36593;SDS011;22603;47.900;8.146;2023-09-12T05:01:08;12.23;;;6.23;;
36593;SDS011;22603;47.900;8.146;2023-09-12T05:03:55;12.10;;;5.83;;
36593;SDS011;22603;47.900;8.146;2023-09-12T05:06:43;14.67;;;6.30;;
36593;SDS011;22603;47.900;8.146;2023-09-12T05:09:30;14.27;;;6.37;;
36593;SDS011;22603;47.900;8.146;2023-09-12T05:12:16;18.47;;;6.80;;
36593;SDS011;22603;47.900;8.146;2023-09-12T05:15:03;12.80;;;6.03;;
36593;SDS011;22603;47.900;8.146;2023-09-12T05:17:50;12.37;;;6.63;;
36593;SDS011;22603;47.900;8.146;2023-09-12T05:20:37;13.60;;;6.27;;
36593;SDS011;22603;47.900;8.146;2023-09-12T05:23:25;12.53;;;6.23;;
36593;SDS011;22603;47.900;8.146;2023-09-12T05:26:12;14.63;;;6.07;;
36593;SDS011;22603;47.900;8.146;2023-09-12T05:28:58;12.83;;;6.00;;
36593;SDS011;22603;47.900;8.146;2023-09-12T05:31:45;12.17;;;5.77;;
36593;SDS011;22603;47.900;8.146;2023-09-12T05:34:31;13.70;;;6.20;;
36593;SDS011;22603;47.900;8.146;2023-09-12T05:37:18;12.63;;;5.73;;
36593;SDS011;22603;47.900;8.146;2023-09-12T05:40:07;16.40;;;6.27;;
36593;SDS011;22603;47.900;8.146;2023-09-12T05:42:55;11.57;;;5.33;;
36593;SDS011;22603;47.900;8.146;2023-09-12T05:45:42;13.63;;;6.00;;
36593;SDS011;22603;47.900;8.146;2023-09-12T05:48:28;14.50;;;6.27;;
36593;SDS011;22603;47.900;8.146;2023-09-12T05:51:15;13.07;;;5.97;;
36593;SDS011;22603;47.900;8.146;2023-09-12T05:54:02;15.57;;;6.07;;
36593;SDS011;22603;47.900;8.146;2023-09-12T05:56:50;14.83;;;6.70;;
36593;SDS011;22603;47.900;8.146;2023-09-12T05:59:38;14.70;;;6.23;;
36593;SDS011;22603;47.900;8.146;2023-09-12T06:02:25;16.47;;;6.00;;
36593;SDS011;22603;47.900;8.146;2023-09-12T06:05:12;14.33;;;6.17;;
36593;SDS011;22603;47.900;8.146;2023-09-12T06:07:58;14.47;;;6.17;;
36593;SDS011;22603;47.900;8.146;2023-09-12T06:10:45;14.57;;;6.27;;
36593;SDS011;22603;47.900;8.146;2023-09-12T06:13:35;13.57;;;5.70;;
36593;SDS011;22603;47.900;8.146;2023-09-12T06:16:22;14.53;;;7.57;;
36593;SDS011;22603;47.900;8.146;2023-09-12T06:19:09;12.10;;;6.10;;
36593;SDS011;22603;47.900;8.146;2023-09-12T06:21:56;13.27;;;6.57;;
36593;SDS011;22603;47.900;8.146;2023-09-12T06:24:43;26.43;;;6.90;;
36593;SDS011;22603;47.900;8.146;2023-09-12T06:27:30;13.73;;;7.07;;
36593;SDS011;22603;47.900;8.146;2023-09-12T06:30:19;16.20;;;6.67;;
36593;SDS011;22603;47.900;8.146;2023-09-12T06:33:07;28.87;;;7.47;;
36593;SDS011;22603;47.900;8.146;2023-09-12T06:35:54;13.17;;;5.83;;
36593;SDS011;22603;47.900;8.146;2023-09-12T06:38:41;22.70;;;6.87;;
36593;SDS011;22603;47.900;8.146;2023-09-12T06:41:28;22.40;;;7.20;;
36593;SDS011;22603;47.900;8.146;2023-09-12T06:44:17;16.75;;;6.97;;
36593;SDS011;22603;47.900;8.146;2023-09-12T06:47:05;19.92;;;6.68;;
36593;SDS011;22603;47.900;8.146;2023-09-12T06:49:54;15.25;;;6.75;;
36593;SDS011;22603;47.900;8.146;2023-09-12T06:52:40;13.48;;;6.43;;
36593;SDS011;22603;47.900;8.146;2023-09-12T06:55:27;12.77;;;6.07;;
36593;SDS011;22603;47.900;8.146;2023-09-12T06:58:18;12.30;;;6.38;;
36593;SDS011;22603;47.900;8.146;2023-09-12T07:01:05;13.25;;;5.88;;
36593;SDS011;22603;47.900;8.146;2023-09-12T07:03:54;12.88;;;6.68;;
36593;SDS011;22603;47.900;8.146;2023-09-12T07:06:41;16.60;;;6.25;;
36593;SDS011;22603;47.900;8.146;2023-09-12T07:09:28;16.08;;;6.53;;
36593;SDS011;22603;47.900;8.146;2023-09-12T07:12:15;14.85;;;6.10;;
36593;SDS011;22603;47.900;8.146;2023-09-12T07:15:02;13.27;;;6.22;;
36593;SDS011;22603;47.900;8.146;2023-09-12T07:17:50;11.02;;;5.75;;
36593;SDS011;22603;47.900;8.146;2023-09-12T07:20:38;13.23;;;6.43;;
36593;SDS011;22603;47.900;8.146;2023-09-12T07:23:24;13.63;;;6.57;;
36593;SDS011;22603;47.900;8.146;2023-09-12T07:26:12;12.85;;;6.13;;
36593;SDS011;22603;47.900;8.146;2023-09-12T07:29:00;14.68;;;6.30;;
36593;SDS011;22603;47.900;8.146;2023-09-12T07:31:51;14.30;;;6.00;;
36593;SDS011;22603;47.900;8.146;2023-09-12T07:34:39;11.45;;;5.72;;
36593;SDS011;22603;47.900;8.146;2023-09-12T07:37:29;10.35;;;5.60;;
36593;SDS011;22603;47.900;8.146;2023-09-12T07:40:15;12.00;;;5.82;;
36593;SDS011;22603;47.900;8.146;2023-09-12T07:43:02;14.23;;;5.85;;
36593;SDS011;22603;47.900;8.146;2023-09-12T07:45:49;12.05;;;5.82;;
36593;SDS011;22603;47.900;8.146;2023-09-12T07:48:40;18.15;;;6.65;;
36593;SDS011;22603;47.900;8.146;2023-09-12T07:51:27;11.00;;;5.93;;
36593;SDS011;22603;47.900;8.146;2023-09-12T07:54:15;12.98;;;6.20;;
36593;SDS011;22603;47.900;8.146;2023-09-12T07:57:02;12.50;;;6.63;;
36593;SDS011;22603;47.900;8.146;2023-09-12T07:59:49;15.63;;;6.75;;
36593;SDS011;22603;47.900;8.146;2023-09-12T08:02:36;12.90;;;6.68;;
36593;SDS011;22603;47.900;8.146;2023-09-12T08:05:23;12.85;;;5.97;;
36593;SDS011;22603;47.900;8.146;2023-09-12T08:08:09;11.15;;;6.50;;
36593;SDS011;22603;47.900;8.146;2023-09-12T08:10:58;12.05;;;6.50;;
36593;SDS011;22603;47.900;8.146;2023-09-12T08:13:45;13.40;;;6.55;;
36593;SDS011;22603;47.900;8.146;2023-09-12T08:16:34;15.25;;;6.43;;
36593;SDS011;22603;47.900;8.146;2023-09-12T08:19:20;14.02;;;6.13;;
36593;SDS011;22603;47.900;8.146;2023-09-12T08:22:08;14.75;;;6.22;;
36593;SDS011;22603;47.900;8.146;2023-09-12T08:24:56;10.40;;;5.45;;
36593;SDS011;22603;47.900;8.146;2023-09-12T08:27:43;12.85;;;6.40;;
36593;SDS011;22603;47.900;8.146;2023-09-12T08:30:30;12.70;;;6.00;;
36593;SDS011;22603;47.900;8.146;2023-09-12T08:33:18;12.77;;;6.90;;
36593;SDS011;22603;47.900;8.146;2023-09-12T08:36:08;14.95;;;6.50;;
36593;SDS011;22603;47.900;8.146;2023-09-12T08:38:55;12.68;;;5.90;;
36593;SDS011;22603;47.900;8.146;2023-09-12T08:41:41;11.52;;;6.20;;
36593;SDS011;22603;47.900;8.146;2023-09-12T08:44:29;13.15;;;6.32;;
36593;SDS011;22603;47.900;8.146;2023-09-12T08:47:16;11.63;;;6.18;;
36593;SDS011;22603;47.900;8.146;2023-09-12T08:50:06;12.35;;;6.60;;
36593;SDS011;22603;47.900;8.146;2023-09-12T08:52:54;9.93;;;5.45;;
36593;SDS011;22603;47.900;8.146;2023-09-12T08:55:52;11.93;;;6.03;;
36593;SDS011;22603;47.900;8.146;2023-09-12T08:58:42;10.65;;;6.30;;
36593;SDS011;22603;47.900;8.146;2023-09-12T09:01:31;11.10;;;5.47;;
36593;SDS011;22603;47.900;8.146;2023-09-12T09:04:18;12.77;;;6.10;;
36593;SDS011;22603;47.900;8.146;2023-09-12T09:07:06;11.63;;;6.30;;
36593;SDS011;22603;47.900;8.146;2023-09-12T09:09:54;19.70;;;6.40;;
36593;SDS011;22603;47.900;8.146;2023-09-12T09:12:44;14.40;;;6.22;;
36593;SDS011;22603;47.900;8.146;2023-09-12T09:15:32;10.02;;;5.75;;
36593;SDS011;22603;47.900;8.146;2023-09-12T09:18:20;10.70;;;5.80;;
36593;SDS011;22603;47.900;8.146;2023-09-12T09:21:13;12.95;;;5.72;;
36593;SDS011;22603;47.900;8.146;2023-09-12T09:24:06;11.95;;;6.00;;
36593;SDS011;22603;47.900;8.146;2023-09-12T09:26:54;11.77;;;6.18;;
36593;SDS011;22603;47.900;8.146;2023-09-12T09:29:46;13.80;;;6.28;;
36593;SDS011;22603;47.900;8.146;2023-09-12T09:32:33;10.63;;;5.25;;
36593;SDS011;22603;47.900;8.146;2023-09-12T09:35:22;10.75;;;5.38;;
36593;SDS011;22603;47.900;8.146;2023-09-12T09:38:09;11.63;;;6.03;;
36593;SDS011;22603;47.900;8.146;2023-09-12T09:41:03;11.75;;;5.65;;
36593;SDS011;22603;47.900;8.146;2023-09-12T09:43:51;12.20;;;5.72;;
36593;SDS011;22603;47.900;8.146;2023-09-12T09:46:38;10.23;;;5.10;;
36593;SDS011;22603;47.900;8.146;2023-09-12T09:49:30;11.02;;;4.60;;
36593;SDS011;22603;47.900;8.146;2023-09-12T09:52:26;10.07;;;5.07;;
36593;SDS011;22603;47.900;8.146;2023-09-12T09:55:13;10.52;;;4.65;;
36593;SDS011;22603;47.900;8.146;2023-09-12T09:58:00;19.52;;;5.43;;
36593;SDS011;22603;47.900;8.146;2023-09-12T10:00:47;9.18;;;4.95;;
36593;SDS011;22603;47.900;8.146;2023-09-12T10:03:36;10.95;;;4.65;;
36593;SDS011;22603;47.900;8.146;2023-09-12T10:06:24;11.40;;;4.93;;
36593;SDS011;22603;47.900;8.146;2023-09-12T10:09:14;13.93;;;4.63;;
36593;SDS011;22603;47.900;8.146;2023-09-12T10:12:02;12.35;;;5.60;;
36593;SDS011;22603;47.900;8.146;2023-09-12T10:14:49;8.20;;;4.45;;
36593;SDS011;22603;47.900;8.146;2023-09-12T10:17:36;8.63;;;4.60;;
36593;SDS011;22603;47.900;8.146;2023-09-12T10:20:26;19.45;;;5.35;;
36593;SDS011;22603;47.900;8.146;2023-09-12T10:23:19;11.05;;;4.88;;
36593;SDS011;22603;47.900;8.146;2023-09-12T10:26:14;9.75;;;4.88;;
36593;SDS011;22603;47.900;8.146;2023-09-12T10:29:04;8.52;;;4.47;;
36593;SDS011;22603;47.900;8.146;2023-09-12T10:31:51;7.97;;;4.38;;
36593;SDS011;22603;47.900;8.146;2023-09-12T10:34:38;8.45;;;4.80;;
36593;SDS011;22603;47.900;8.146;2023-09-12T10:37:29;10.90;;;5.15;;
36593;SDS011;22603;47.900;8.146;2023-09-12T10:40:21;9.13;;;4.38;;
36593;SDS011;22603;47.900;8.146;2023-09-12T10:43:09;10.23;;;4.20;;
36593;SDS011;22603;47.900;8.146;2023-09-12T10:45:58;9.07;;;4.60;;
36593;SDS011;22603;47.900;8.146;2023-09-12T10:48:48;10.10;;;4.70;;
36593;SDS011;22603;47.900;8.146;2023-09-12T10:51:37;8.80;;;4.50;;
36593;SDS011;22603;47.900;8.146;2023-09-12T10:54:26;7.85;;;4.40;;
36593;SDS011;22603;47.900;8.146;2023-09-12T10:57:22;7.72;;;4.20;;
36593;SDS011;22603;47.900;8.146;2023-09-12T11:00:12;9.48;;;4.45;;
36593;SDS011;22603;47.900;8.146;2023-09-12T11:03:01;7.82;;;4.15;;
36593;SDS011;22603;47.900;8.146;2023-09-12T11:06:23;8.05;;;4.20;;
36593;SDS011;22603;47.900;8.146;2023-09-12T11:09:18;10.38;;;4.15;;
36593;SDS011;22603;47.900;8.146;2023-09-12T11:12:08;9.70;;;4.32;;
36593;SDS011;22603;47.900;8.146;2023-09-12T11:15:23;8.52;;;4.20;;
36593;SDS011;22603;47.900;8.146;2023-09-12T11:18:11;9.00;;;4.25;;
36593;SDS011;22603;47.900;8.146;2023-09-12T11:20:59;7.55;;;4.25;;
36593;SDS011;22603;47.900;8.146;2023-09-12T11:23:53;8.48;;;4.47;;
36593;SDS011;22603;47.900;8.146;2023-09-12T11:26:52;10.73;;;5.05;;
36593;SDS011;22603;47.900;8.146;2023-09-12T11:29:39;9.75;;;3.90;;
36593;SDS011;22603;47.900;8.146;2023-09-12T11:32:30;8.52;;;4.47;;
36593;SDS011;22603;47.900;8.146;2023-09-12T11:35:21;8.43;;;4.03;;
36593;SDS011;22603;47.900;8.146;2023-09-12T11:38:09;7.90;;;4.03;;
36593;SDS011;22603;47.900;8.146;2023-09-12T11:40:57;9.60;;;3.95;;
36593;SDS011;22603;47.900;8.146;2023-09-12T11:43:44;8.82;;;4.43;;
36593;SDS011;22603;47.900;8.146;2023-09-12T11:46:34;8.55;;;4.38;;
36593;SDS011;22603;47.900;8.146;2023-09-12T11:49:22;9.68;;;4.10;;
36593;SDS011;22603;47.900;8.146;2023-09-12T11:52:10;10.30;;;4.25;;
36593;SDS011;22603;47.900;8.146;2023-09-12T11:54:59;18.80;;;3.88;;
36593;SDS011;22603;47.900;8.146;2023-09-12T11:57:46;10.98;;;4.07;;
36593;SDS011;22603;47.900;8.146;2023-09-12T12:00:33;8.57;;;4.00;;
36593;SDS011;22603;47.900;8.146;2023-09-12T12:03:20;9.85;;;4.63;;
36593;SDS011;22603;47.900;8.146;2023-09-12T12:06:10;9.77;;;4.30;;
36593;SDS011;22603;47.900;8.146;2023-09-12T12:08:57;9.15;;;4.72;;
36593;SDS011;22603;47.900;8.146;2023-09-12T12:11:44;14.73;;;4.07;;
36593;SDS011;22603;47.900;8.146;2023-09-12T12:14:33;9.77;;;4.50;;
36593;SDS011;22603;47.900;8.146;2023-09-12T12:17:21;11.55;;;3.88;;
36593;SDS011;22603;47.900;8.146;2023-09-12T12:20:09;9.20;;;3.92;;
36593;SDS011;22603;47.900;8.146;2023-09-12T12:22:58;9.32;;;3.60;;
36593;SDS011;22603;47.900;8.146;2023-09-12T12:25:44;8.82;;;4.25;;
36593;SDS011;22603;47.900;8.146;2023-09-12T12:28:32;7.70;;;3.78;;
36593;SDS011;22603;47.900;8.146;2023-09-12T12:31:19;9.10;;;4.10;;
36593;SDS011;22603;47.900;8.146;2023-09-12T12:34:11;14.02;;;4.38;;
36593;SDS011;22603;47.900;8.146;2023-09-12T12:37:18;19.85;;;4.90;;
36593;SDS011;22603;47.900;8.146;2023-09-12T12:40:11;8.57;;;3.83;;
36593;SDS011;22603;47.900;8.146;2023-09-12T12:42:59;8.65;;;3.97;;
36593;SDS011;22603;47.900;8.146;2023-09-12T12:45:52;8.75;;;4.25;;
36593;SDS011;22603;47.900;8.146;2023-09-12T12:48:42;10.60;;;3.88;;
36593;SDS011;22603;47.900;8.146;2023-09-12T12:51:31;8.20;;;4.03;;
36593;SDS011;22603;47.900;8.146;2023-09-12T12:54:21;11.43;;;4.40;;
36593;SDS011;22603;47.900;8.146;2023-09-12T12:57:11;11.80;;;4.30;;
36593;SDS011;22603;47.900;8.146;2023-09-12T12:59:59;7.97;;;3.75;;
36593;SDS011;22603;47.900;8.146;2023-09-12T13:02:48;7.72;;;3.67;;
36593;SDS011;22603;47.900;8.146;2023-09-12T13:05:36;12.38;;;4.38;;
36593;SDS011;22603;47.900;8.146;2023-09-12T13:08:22;10.15;;;4.35;;
36593;SDS011;22603;47.900;8.146;2023-09-12T13:11:14;8.63;;;4.22;;
36593;SDS011;22603;47.900;8.146;2023-09-12T13:14:04;8.70;;;3.92;;
36593;SDS011;22603;47.900;8.146;2023-09-12T13:16:55;36.83;;;6.07;;
36593;SDS011;22603;47.900;8.146;2023-09-12T13:19:41;12.35;;;4.22;;
36593;SDS011;22603;47.900;8.146;2023-09-12T13:22:28;8.95;;;4.30;;
36593;SDS011;22603;47.900;8.146;2023-09-12T13:25:15;7.88;;;3.70;;
36593;SDS011;22603;47.900;8.146;2023-09-12T13:28:02;9.25;;;4.60;;
36593;SDS011;22603;47.900;8.146;2023-09-12T13:30:50;7.90;;;3.85;;
36593;SDS011;22603;47.900;8.146;2023-09-12T13:33:37;11.43;;;4.28;;
36593;SDS011;22603;47.900;8.146;2023-09-12T13:36:25;8.38;;;3.85;;
36593;SDS011;22603;47.900;8.146;2023-09-12T13:39:11;10.48;;;4.10;;
36593;SDS011;22603;47.900;8.146;2023-09-12T13:41:58;11.30;;;4.05;;
36593;SDS011;22603;47.900;8.146;2023-09-12T13:44:48;10.60;;;4.35;;
36593;SDS011;22603;47.900;8.146;2023-09-12T13:47:36;12.23;;;4.25;;
36593;SDS011;22603;47.900;8.146;2023-09-12T13:50:23;8.55;;;3.63;;
36593;SDS011;22603;47.900;8.146;2023-09-12T13:53:13;15.75;;;4.13;;
36593;SDS011;22603;47.900;8.146;2023-09-12T13:55:59;9.32;;;4.28;;
36593;SDS011;22603;47.900;8.146;2023-09-12T13:58:47;14.65;;;4.00;;
36593;SDS011;22603;47.900;8.146;2023-09-12T14:01:34;10.30;;;4.22;;
36593;SDS011;22603;47.900;8.146;2023-09-12T14:04:22;10.77;;;4.53;;
36593;SDS011;22603;47.900;8.146;2023-09-12T14:07:10;14.60;;;4.82;;
36593;SDS011;22603;47.900;8.146;2023-09-12T14:09:57;9.88;;;4.18;;
36593;SDS011;22603;47.900;8.146;2023-09-12T14:12:44;14.75;;;4.75;;
36593;SDS011;22603;47.900;8.146;2023-09-12T14:15:31;11.40;;;4.40;;
36593;SDS011;22603;47.900;8.146;2023-09-12T14:18:19;13.93;;;4.68;;
36593;SDS011;22603;47.900;8.146;2023-09-12T14:21:09;12.77;;;4.22;;
36593;SDS011;22603;47.900;8.146;2023-09-12T14:23:57;9.88;;;3.92;;
36593;SDS011;22603;47.900;8.146;2023-09-12T14:26:45;14.63;;;4.28;;
36593;SDS011;22603;47.900;8.146;2023-09-12T14:29:33;11.93;;;4.13;;
36593;SDS011;22603;47.900;8.146;2023-09-12T14:32:21;10.65;;;4.15;;
36593;SDS011;22603;47.900;8.146;2023-09-12T14:35:07;8.25;;;3.83;;
36593;SDS011;22603;47.900;8.146;2023-09-12T14:37:56;8.98;;;4.07;;
36593;SDS011;22603;47.900;8.146;2023-09-12T14:40:43;11.27;;;4.20;;
36593;SDS011;22603;47.900;8.146;2023-09-12T14:43:30;10.07;;;4.60;;
36593;SDS011;22603;47.900;8.146;2023-09-12T14:46:17;11.48;;;4.53;;
36593;SDS011;22603;47.900;8.146;2023-09-12T14:49:04;11.07;;;4.40;;
36593;SDS011;22603;47.900;8.146;2023-09-12T14:51:50;9.68;;;4.18;;
36593;SDS011;22603;47.900;8.146;2023-09-12T14:54:39;15.77;;;4.47;;
36593;SDS011;22603;47.900;8.146;2023-09-12T14:57:26;9.23;;;4.43;;
36593;SDS011;22603;47.900;8.146;2023-09-12T15:00:13;7.82;;;3.80;;
36593;SDS011;22603;47.900;8.146;2023-09-12T15:03:00;11.48;;;4.43;;
36593;SDS011;22603;47.900;8.146;2023-09-12T15:05:47;9.77;;;4.00;;
36593;SDS011;22603;47.900;8.146;2023-09-12T15:08:34;39.53;;;5.45;;
36593;SDS011;22603;47.900;8.146;2023-09-12T15:11:22;10.68;;;3.90;;
36593;SDS011;22603;47.900;8.146;2023-09-12T15:14:09;13.82;;;4.10;;
36593;SDS011;22603;47.900;8.146;2023-09-12T15:16:56;9.25;;;4.15;;
36593;SDS011;22603;47.900;8.146;2023-09-12T15:19:44;8.63;;;4.03;;
36593;SDS011;22603;47.900;8.146;2023-09-12T15:22:31;16.02;;;4.68;;
36593;SDS011;22603;47.900;8.146;2023-09-12T15:25:19;8.60;;;3.90;;
36593;SDS011;22603;47.900;8.146;2023-09-12T15:28:07;10.98;;;4.07;;
36593;SDS011;22603;47.900;8.146;2023-09-12T15:30:54;9.25;;;3.70;;
36593;SDS011;22603;47.900;8.146;2023-09-12T15:33:41;17.48;;;4.70;;
36593;SDS011;22603;47.900;8.146;2023-09-12T15:36:28;9.50;;;4.18;;
36593;SDS011;22603;47.900;8.146;2023-09-12T15:39:22;26.75;;;4.80;;
36593;SDS011;22603;47.900;8.146;2023-09-12T15:42:09;12.93;;;4.63;;
36593;SDS011;22603;47.900;8.146;2023-09-12T15:45:17;8.93;;;4.32;;
36593;SDS011;22603;47.900;8.146;2023-09-12T15:48:06;8.27;;;3.88;;
36593;SDS011;22603;47.900;8.146;2023-09-12T15:50:52;9.43;;;4.10;;
36593;SDS011;22603;47.900;8.146;2023-09-12T15:53:40;10.00;;;4.10;;
36593;SDS011;22603;47.900;8.146;2023-09-12T15:56:27;11.98;;;3.70;;
36593;SDS011;22603;47.900;8.146;2023-09-12T15:59:15;12.15;;;4.40;;
36593;SDS011;22603;47.900;8.146;2023-09-12T16:02:03;12.27;;;3.63;;
36593;SDS011;22603;47.900;8.146;2023-09-12T16:04:50;7.25;;;3.53;;
36593;SDS011;22603;47.900;8.146;2023-09-12T16:07:37;7.60;;;3.50;;
36593;SDS011;22603;47.900;8.146;2023-09-12T16:10:24;8.38;;;3.83;;
36593;SDS011;22603;47.900;8.146;2023-09-12T16:13:11;8.18;;;3.70;;
36593;SDS011;22603;47.900;8.146;2023-09-12T16:15:58;8.43;;;3.70;;
36593;SDS011;22603;47.900;8.146;2023-09-12T16:18:46;11.25;;;3.95;;
36593;SDS011;22603;47.900;8.146;2023-09-12T16:21:33;10.38;;;4.10;;
36593;SDS011;22603;47.900;8.146;2023-09-12T16:24:23;9.07;;;3.63;;
36593;SDS011;22603;47.900;8.146;2023-09-12T16:27:09;10.35;;;4.10;;
36593;SDS011;22603;47.900;8.146;2023-09-12T16:29:56;10.63;;;4.13;;
36593;SDS011;22603;47.900;8.146;2023-09-12T16:32:44;12.52;;;3.70;;
36593;SDS011;22603;47.900;8.146;2023-09-12T16:35:32;8.30;;;3.78;;
36593;SDS011;22603;47.900;8.146;2023-09-12T16:38:19;10.77;;;4.20;;
36593;SDS011;22603;47.900;8.146;2023-09-12T16:41:06;10.00;;;4.30;;
36593;SDS011;22603;47.900;8.146;2023-09-12T16:43:53;10.30;;;3.90;;
36593;SDS011;22603;47.900;8.146;2023-09-12T16:46:40;8.50;;;4.18;;